Time;durP1;ratioP1;P1;durP2;ratioP2;P2;SDS_P1;SDS_P2;PMS_P1;PMS_P2;Temp;Humidity;BMP_temperature;BMP_pressure;BME280_temperature;BME280_humidity;BME280_pressure;Samples;Min_cycle;Max_cycle;Signal;HPM_P1;HPM_P2
2022/11/17 00:00:04;;;;;;;7.37;2.87;;;;;;;;;;5025349;28;20414;-44
2022/11/17 00:02:30;;;;;;;4.63;2.90;;;;;;;;;;5022421;28;20967;-42
2022/11/17 00:04:56;;;;;;;8.13;3.40;;;;;;;;;;5024237;28;20449;-42
2022/11/17 00:07:22;;;;;;;4.33;3.10;;;;;;;;;;5025596;28;20411;-42
2022/11/17 00:09:48;;;;;;;5.40;3.33;;;;;;;;;;5022217;28;20524;-42
2022/11/17 00:14:59;;;;;;;5.33;2.80;;;;;;;;;;5023819;28;20470;-44
2022/11/17 00:17:25;;;;;;;3.77;2.50;;;;;;;;;;5022688;28;20494;-44
2022/11/17 00:22:35;;;;;;;5.20;2.83;;;;;;;;;;5027006;28;20470;-45
2022/11/17 00:25:01;;;;;;;3.30;2.97;;;;;;;;;;5027210;28;20447;-45
2022/11/17 00:27:27;;;;;;;5.23;3.37;;;;;;;;;;5023138;28;20420;-44
2022/11/17 00:29:53;;;;;;;5.60;2.57;;;;;;;;;;5018804;28;20459;-44
2022/11/17 00:35:05;;;;;;;7.27;2.80;;;;;;;;;;5026148;28;20418;-44
2022/11/17 00:37:34;;;;;;;3.90;2.60;;;;;;;;;;5024610;28;20440;-44
2022/11/17 00:40:00;;;;;;;11.80;3.00;;;;;;;;;;5023769;28;20403;-45
2022/11/17 00:42:26;;;;;;;2.80;2.60;;;;;;;;;;5023556;28;20943;-44
2022/11/17 00:44:52;;;;;;;5.80;3.27;;;;;;;;;;5023345;28;20414;-44
2022/11/17 00:47:17;;;;;;;11.40;4.00;;;;;;;;;;5019134;28;20490;-44
2022/11/17 00:49:43;;;;;;;6.60;4.03;;;;;;;;;;5026351;28;20461;-44
2022/11/17 00:52:10;;;;;;;8.83;3.40;;;;;;;;;;5023348;28;20815;-44
2022/11/17 00:54:36;;;;;;;7.17;3.33;;;;;;;;;;5023336;28;20438;-44
2022/11/17 00:57:02;;;;;;;5.93;3.67;;;;;;;;;;5025133;28;20766;-44
2022/11/17 00:59:28;;;;;;;2.87;2.50;;;;;;;;;;5022824;28;20454;-44
2022/11/17 01:01:54;;;;;;;6.90;2.60;;;;;;;;;;5023764;28;20434;-44
2022/11/17 01:04:20;;;;;;;4.47;3.30;;;;;;;;;;5024692;28;20424;-44
2022/11/17 01:06:47;;;;;;;8.73;3.00;;;;;;;;;;5028774;28;20417;-44
2022/11/17 01:09:13;;;;;;;2.53;2.33;;;;;;;;;;5022629;28;20458;-44
2022/11/17 01:11:39;;;;;;;5.90;3.50;;;;;;;;;;5021512;28;20437;-44
2022/11/17 01:14:05;;;;;;;10.00;4.17;;;;;;;;;;5024910;28;20442;-44
2022/11/17 01:16:31;;;;;;;4.70;3.40;;;;;;;;;;5024469;28;20412;-44
2022/11/17 01:18:58;;;;;;;7.17;3.33;;;;;;;;;;5026746;28;20507;-44
2022/11/17 01:21:25;;;;;;;9.33;3.70;;;;;;;;;;5027549;28;20439;-44
2022/11/17 01:23:52;;;;;;;8.00;2.93;;;;;;;;;;5027580;28;20501;-44
2022/11/17 01:26:19;;;;;;;5.03;2.97;;;;;;;;;;5021601;28;20417;-44
2022/11/17 01:28:46;;;;;;;3.93;2.87;;;;;;;;;;5018533;28;20459;-44
2022/11/17 01:31:20;;;;;;;3.00;2.70;;;;;;;;;;5027169;28;20910;-45
2022/11/17 01:33:47;;;;;;;4.67;2.60;;;;;;;;;;5023511;28;20495;-44
2022/11/17 01:36:13;;;;;;;4.37;3.10;;;;;;;;;;5026722;28;20444;-44
2022/11/17 01:38:39;;;;;;;6.47;2.97;;;;;;;;;;5023072;28;20407;-44
2022/11/17 01:41:06;;;;;;;4.93;2.93;;;;;;;;;;5024593;28;20434;-44
2022/11/17 01:43:55;;;;;;;3.47;2.37;;;;;;;;;;5023956;28;20409;-43
2022/11/17 01:46:40;;;;;;;3.40;2.23;;;;;;;;;;5016128;28;20425;-43
2022/11/17 01:49:20;;;;;;;7.40;2.90;;;;;;;;;;5030279;28;20463;-44
2022/11/17 01:51:51;;;;;;;3.90;2.60;;;;;;;;;;5027777;28;20434;-45
2022/11/17 01:54:19;;;;;;;3.67;3.03;;;;;;;;;;5024173;28;20497;-44
2022/11/17 01:56:46;;;;;;;5.60;2.80;;;;;;;;;;5021217;28;20438;-46
2022/11/17 01:59:21;;;;;;;4.07;2.60;;;;;;;;;;5028777;28;20426;-43
2022/11/17 02:01:57;;;;;;;4.13;2.80;;;;;;;;;;5024590;28;20936;-43
2022/11/17 02:04:28;;;;;;;4.20;2.60;;;;;;;;;;5026682;28;20467;-44
2022/11/17 02:07:20;;;;;;;4.83;3.50;;;;;;;;;;5025899;28;20426;-43
2022/11/17 02:09:46;;;;;;;6.50;2.90;;;;;;;;;;5005561;28;20487;-44
2022/11/17 02:12:13;;;;;;;4.20;2.63;;;;;;;;;;5016830;28;20429;-44
2022/11/17 02:14:40;;;;;;;5.40;2.80;;;;;;;;;;5024327;28;20417;-45
2022/11/17 02:17:07;;;;;;;7.43;3.63;;;;;;;;;;5029907;28;20486;-45
2022/11/17 02:19:37;;;;;;;4.77;3.80;;;;;;;;;;5026047;28;20429;-45
2022/11/17 02:22:03;;;;;;;5.90;3.90;;;;;;;;;;5021033;28;20467;-44
2022/11/17 02:24:41;;;;;;;4.97;2.70;;;;;;;;;;5022744;28;20411;-44
2022/11/17 02:27:20;;;;;;;2.50;2.30;;;;;;;;;;5027170;28;20478;-43
2022/11/17 02:29:58;;;;;;;5.10;2.70;;;;;;;;;;5024373;28;20468;-43
2022/11/17 02:32:37;;;;;;;3.20;2.90;;;;;;;;;;5026269;28;20483;-44
2022/11/17 02:35:09;;;;;;;3.50;3.20;;;;;;;;;;5026426;28;20413;-45
2022/11/17 02:37:41;;;;;;;6.87;3.50;;;;;;;;;;5024757;28;20461;-44
2022/11/17 02:40:16;;;;;;;3.00;2.73;;;;;;;;;;5024411;28;20446;-43
2022/11/17 02:45:42;;;;;;;5.57;3.33;;;;;;;;;;5021873;28;20852;-43
2022/11/17 02:48:11;;;;;;;4.97;2.60;;;;;;;;;;5027421;28;20450;-45
2022/11/17 02:50:38;;;;;;;11.93;3.10;;;;;;;;;;5028422;28;20548;-44
2022/11/17 02:53:04;;;;;;;6.93;2.53;;;;;;;;;;5024199;28;20435;-43
2022/11/17 02:55:33;;;;;;;3.53;2.40;;;;;;;;;;5031724;28;20406;-45
2022/11/17 02:57:59;;;;;;;3.97;2.80;;;;;;;;;;5028782;28;20415;-44
2022/11/17 03:00:26;;;;;;;3.20;2.07;;;;;;;;;;5029847;28;20438;-44
2022/11/17 03:03:11;;;;;;;2.17;2.00;;;;;;;;;;5029084;28;20431;-43
2022/11/17 03:05:46;;;;;;;4.40;2.37;;;;;;;;;;5023793;28;20942;-45
2022/11/17 03:08:26;;;;;;;4.57;2.30;;;;;;;;;;5028210;28;20446;-44
2022/11/17 03:10:59;;;;;;;2.27;2.10;;;;;;;;;;5028542;28;20441;-43
2022/11/17 03:13:33;;;;;;;2.50;2.10;;;;;;;;;;5031305;28;20442;-44
2022/11/17 03:16:06;;;;;;;2.40;2.20;;;;;;;;;;5032642;28;20448;-44
2022/11/17 03:18:37;;;;;;;8.27;2.20;;;;;;;;;;5029371;28;20414;-45
2022/11/17 03:21:03;;;;;;;4.03;2.60;;;;;;;;;;5023861;28;20455;-44
2022/11/17 03:23:33;;;;;;;2.10;1.70;;;;;;;;;;5031777;28;20433;-44
2022/11/17 03:26:01;;;;;;;2.57;2.37;;;;;;;;;;5028360;28;20461;-45
2022/11/17 03:28:28;;;;;;;2.80;2.30;;;;;;;;;;5029589;28;20418;-43
2022/11/17 03:30:55;;;;;;;2.20;2.00;;;;;;;;;;5028553;28;20414;-43
2022/11/17 03:33:22;;;;;;;3.33;2.03;;;;;;;;;;5028101;28;20419;-44
2022/11/17 03:35:56;;;;;;;3.90;2.47;;;;;;;;;;5028595;28;20741;-43
2022/11/17 03:38:24;;;;;;;2.90;1.90;;;;;;;;;;5027840;28;20410;-42
2022/11/17 03:40:51;;;;;;;6.97;1.97;;;;;;;;;;5032904;28;20417;-43
2022/11/17 03:43:18;;;;;;;2.23;2.03;;;;;;;;;;5026755;28;20442;-43
2022/11/17 03:45:47;;;;;;;2.23;1.70;;;;;;;;;;5024925;28;20905;-43
2022/11/17 03:48:18;;;;;;;4.27;2.53;;;;;;;;;;5019595;28;20407;-43
2022/11/17 03:50:57;;;;;;;2.23;2.00;;;;;;;;;;5026597;28;20473;-44
2022/11/17 03:53:23;;;;;;;2.23;1.90;;;;;;;;;;5021257;28;20442;-43
2022/11/17 03:55:55;;;;;;;3.97;2.07;;;;;;;;;;5027281;28;20418;-43
2022/11/17 03:58:22;;;;;;;2.23;1.97;;;;;;;;;;5029066;28;20939;-44
2022/11/17 04:00:50;;;;;;;2.10;1.83;;;;;;;;;;5028024;28;20903;-43
2022/11/17 04:03:16;;;;;;;3.60;1.70;;;;;;;;;;5023591;28;20506;-42
2022/11/17 04:05:42;;;;;;;1.77;1.67;;;;;;;;;;5031063;28;20458;-43
2022/11/17 04:08:08;;;;;;;2.10;1.90;;;;;;;;;;5027962;28;20413;-43
2022/11/17 04:15:55;;;;;;;2.27;2.10;;;;;;;;;;5026885;28;20461;-43
2022/11/17 04:16:05;;;;;;;4.53;2.10;;;;;;;;;;5027418;28;20423;-44
2022/11/17 04:18:31;;;;;;;2.40;1.83;;;;;;;;;;5026825;28;20411;-43
2022/11/17 04:20:57;;;;;;;1.77;1.67;;;;;;;;;;5027616;28;20501;-44
2022/11/17 04:23:24;;;;;;;2.00;1.90;;;;;;;;;;5029607;28;20962;-44
2022/11/17 04:28:49;;;;;;;3.53;2.07;;;;;;;;;;5028771;28;20420;-44
2022/11/17 04:31:16;;;;;;;4.47;2.43;;;;;;;;;;5015040;28;20456;-43
2022/11/17 04:33:44;;;;;;;2.13;1.93;;;;;;;;;;5029616;28;20777;-43
2022/11/17 04:36:10;;;;;;;1.60;1.50;;;;;;;;;;5026822;28;21066;-44
2022/11/17 04:38:40;;;;;;;1.70;1.60;;;;;;;;;;5027371;28;20905;-43
2022/11/17 04:43:51;;;;;;;1.80;1.70;;;;;;;;;;5026678;28;20465;-44
2022/11/17 04:46:18;;;;;;;2.83;2.00;;;;;;;;;;5018586;28;20469;-44
2022/11/17 04:48:44;;;;;;;2.23;1.57;;;;;;;;;;5025758;28;20419;-44
2022/11/17 04:51:11;;;;;;;1.87;1.67;;;;;;;;;;5030964;28;20501;-44
2022/11/17 04:53:37;;;;;;;2.00;1.70;;;;;;;;;;5028584;28;20896;-45
2022/11/17 04:56:04;;;;;;;2.13;1.93;;;;;;;;;;5023215;28;20411;-45
2022/11/17 04:58:30;;;;;;;4.20;1.80;;;;;;;;;;5022476;28;20408;-44
2022/11/17 05:01:11;;;;;;;2.40;1.73;;;;;;;;;;5026335;28;20422;-45
2022/11/17 05:03:37;;;;;;;2.53;2.20;;;;;;;;;;5027778;28;20506;-44
2022/11/17 05:06:03;;;;;;;2.67;2.00;;;;;;;;;;5027674;28;20912;-44
2022/11/17 05:08:29;;;;;;;1.50;1.40;;;;;;;;;;5026858;28;20469;-44
2022/11/17 05:13:41;;;;;;;3.37;2.00;;;;;;;;;;5026302;28;20981;-43
2022/11/17 05:18:52;;;;;;;2.23;1.80;;;;;;;;;;5031240;28;20449;-44
2022/11/17 05:21:18;;;;;;;4.13;2.07;;;;;;;;;;5025391;28;20919;-44
2022/11/17 05:23:53;;;;;;;5.83;2.50;;;;;;;;;;5022465;28;20442;-44
2022/11/17 05:26:20;;;;;;;4.87;2.90;;;;;;;;;;5018156;28;20965;-42
2022/11/17 05:28:49;;;;;;;3.80;2.57;;;;;;;;;;5024717;28;20437;-43
2022/11/17 05:31:16;;;;;;;2.70;2.03;;;;;;;;;;5027903;28;20418;-45
2022/11/17 05:33:42;;;;;;;2.20;1.67;;;;;;;;;;5026661;28;20477;-44
2022/11/17 05:36:08;;;;;;;4.53;2.20;;;;;;;;;;5028417;28;20422;-46
2022/11/17 05:38:34;;;;;;;2.30;2.10;;;;;;;;;;5025552;28;20402;-44
2022/11/17 05:41:00;;;;;;;3.80;2.50;;;;;;;;;;5020545;28;20972;-44
2022/11/17 05:43:26;;;;;;;2.40;2.20;;;;;;;;;;5026746;28;20493;-45
2022/11/17 05:45:52;;;;;;;2.20;2.10;;;;;;;;;;5014985;28;20480;-44
2022/11/17 05:48:18;;;;;;;4.30;2.70;;;;;;;;;;5041039;28;20422;-44
2022/11/17 05:50:44;;;;;;;3.87;2.60;;;;;;;;;;5030352;28;20457;-43
2022/11/17 05:53:10;;;;;;;2.33;2.10;;;;;;;;;;5021798;28;20502;-42
2022/11/17 05:55:36;;;;;;;2.70;2.27;;;;;;;;;;5020517;28;20415;-45
2022/11/17 05:58:12;;;;;;;2.17;1.90;;;;;;;;;;5023639;28;20469;-44
2022/11/17 06:00:39;;;;;;;4.57;2.10;;;;;;;;;;5027825;28;20468;-45
2022/11/17 06:03:12;;;;;;;3.10;2.13;;;;;;;;;;5022268;28;20489;-44
2022/11/17 06:05:38;;;;;;;6.73;2.20;;;;;;;;;;5021830;28;20411;-45
2022/11/17 06:08:04;;;;;;;2.20;2.00;;;;;;;;;;5022712;28;20409;-44
2022/11/17 06:10:30;;;;;;;2.43;2.33;;;;;;;;;;5024304;28;20516;-45
2022/11/17 06:12:56;;;;;;;5.37;3.00;;;;;;;;;;5025115;28;20534;-43
2022/11/17 06:15:22;;;;;;;3.50;2.70;;;;;;;;;;5029086;28;20464;-43
2022/11/17 06:17:53;;;;;;;4.73;2.63;;;;;;;;;;5028527;28;20493;-43
2022/11/17 06:20:30;;;;;;;6.60;3.00;;;;;;;;;;5023664;28;20424;-44
2022/11/17 06:22:57;;;;;;;2.90;2.70;;;;;;;;;;5020702;28;20450;-44
2022/11/17 06:25:23;;;;;;;7.73;2.90;;;;;;;;;;5028021;28;20449;-45
2022/11/17 06:27:50;;;;;;;4.27;2.73;;;;;;;;;;5025288;28;20444;-45
2022/11/17 06:30:16;;;;;;;4.73;3.03;;;;;;;;;;5026376;28;20476;-46
2022/11/17 06:32:42;;;;;;;7.27;3.40;;;;;;;;;;5024156;28;20445;-45
2022/11/17 06:35:09;;;;;;;3.77;2.87;;;;;;;;;;5026237;28;20434;-46
2022/11/17 06:37:35;;;;;;;4.97;2.63;;;;;;;;;;5024450;28;20471;-43
2022/11/17 06:40:01;;;;;;;7.43;2.87;;;;;;;;;;5025002;28;20472;-43
2022/11/17 06:45:20;;;;;;;5.50;2.83;;;;;;;;;;5008854;28;20770;-43
2022/11/17 06:47:46;;;;;;;5.63;2.47;;;;;;;;;;5020343;28;20426;-45
2022/11/17 06:50:12;;;;;;;2.73;2.43;;;;;;;;;;5023602;28;20473;-46
2022/11/17 06:52:38;;;;;;;4.80;2.77;;;;;;;;;;5021663;28;20431;-45
2022/11/17 06:55:04;;;;;;;5.80;2.83;;;;;;;;;;5024553;28;20422;-46
2022/11/17 06:57:30;;;;;;;2.80;2.60;;;;;;;;;;5025446;28;20422;-46
2022/11/17 06:59:56;;;;;;;3.77;2.77;;;;;;;;;;5025898;28;20943;-46
2022/11/17 07:02:22;;;;;;;2.90;2.70;;;;;;;;;;5023271;28;20453;-44
2022/11/17 07:04:48;;;;;;;3.53;2.50;;;;;;;;;;5018530;28;20451;-43
2022/11/17 07:07:14;;;;;;;3.53;2.70;;;;;;;;;;5024872;28;20480;-45
2022/11/17 07:09:40;;;;;;;8.67;2.60;;;;;;;;;;5023401;28;20511;-44
2022/11/17 07:12:06;;;;;;;4.40;2.53;;;;;;;;;;5027654;28;20423;-43
2022/11/17 07:14:32;;;;;;;7.20;3.03;;;;;;;;;;5021370;28;20924;-46
2022/11/17 07:16:58;;;;;;;3.90;2.70;;;;;;;;;;5024628;28;20411;-45
2022/11/17 07:19:24;;;;;;;2.43;2.23;;;;;;;;;;5019818;28;20497;-45
2022/11/17 07:21:50;;;;;;;8.40;4.00;;;;;;;;;;5024123;28;20808;-45
2022/11/17 07:24:16;;;;;;;3.40;2.00;;;;;;;;;;5038869;28;20429;-43
2022/11/17 07:26:42;;;;;;;2.47;2.00;;;;;;;;;;5021744;28;20455;-45
2022/11/17 07:29:08;;;;;;;2.70;2.17;;;;;;;;;;5024868;28;20512;-45
2022/11/17 07:31:35;;;;;;;2.20;2.00;;;;;;;;;;5020835;28;20455;-43
2022/11/17 07:34:02;;;;;;;2.30;1.70;;;;;;;;;;5022974;28;20824;-43
2022/11/17 07:36:28;;;;;;;2.50;1.90;;;;;;;;;;5023807;28;20415;-42
2022/11/17 07:38:54;;;;;;;2.30;2.10;;;;;;;;;;5032229;28;20418;-43
2022/11/17 07:41:20;;;;;;;2.30;1.63;;;;;;;;;;5026231;28;20437;-44
2022/11/17 07:43:46;;;;;;;4.80;1.60;;;;;;;;;;5024019;28;20568;-42
2022/11/17 07:46:13;;;;;;;2.17;1.90;;;;;;;;;;5026566;28;20417;-44
2022/11/17 07:48:40;;;;;;;1.93;1.77;;;;;;;;;;5025144;28;20933;-43
2022/11/17 07:51:06;;;;;;;2.23;2.03;;;;;;;;;;5027392;28;20438;-43
2022/11/17 07:53:33;;;;;;;1.77;1.50;;;;;;;;;;5028377;28;20512;-46
2022/11/17 07:56:03;;;;;;;4.33;2.07;;;;;;;;;;5030538;28;20412;-43
2022/11/17 07:58:29;;;;;;;3.50;2.13;;;;;;;;;;5025513;28;20857;-42
2022/11/17 08:00:55;;;;;;;2.27;2.00;;;;;;;;;;5019714;28;20514;-45
2022/11/17 08:03:21;;;;;;;2.47;1.90;;;;;;;;;;5026732;28;20453;-45
2022/11/17 08:05:47;;;;;;;1.80;1.70;;;;;;;;;;5024923;28;20407;-44
2022/11/17 08:08:13;;;;;;;1.90;1.70;;;;;;;;;;5026893;28;20421;-44
2022/11/17 08:10:39;;;;;;;2.40;2.00;;;;;;;;;;5023227;28;20540;-45
2022/11/17 08:13:06;;;;;;;3.00;1.80;;;;;;;;;;5025840;28;20446;-44
2022/11/17 08:15:32;;;;;;;2.60;1.87;;;;;;;;;;5023329;28;20968;-44
2022/11/17 08:17:58;;;;;;;1.70;1.60;;;;;;;;;;5024665;28;20449;-44
2022/11/17 08:20:25;;;;;;;2.83;1.80;;;;;;;;;;5026179;28;20450;-44
2022/11/17 08:22:52;;;;;;;5.53;1.70;;;;;;;;;;5022595;28;20489;-44
2022/11/17 08:25:21;;;;;;;3.87;1.80;;;;;;;;;;5024584;28;20461;-44
2022/11/17 08:27:50;;;;;;;3.67;1.60;;;;;;;;;;5023097;28;20923;-43
2022/11/17 08:30:17;;;;;;;2.50;1.53;;;;;;;;;;5020391;28;20557;-44
2022/11/17 08:32:51;;;;;;;1.83;1.67;;;;;;;;;;5025656;28;20434;-44
2022/11/17 08:35:17;;;;;;;2.00;1.60;;;;;;;;;;5016666;28;20414;-44
2022/11/17 08:37:43;;;;;;;1.70;1.47;;;;;;;;;;5026789;28;20450;-45
2022/11/17 08:40:09;;;;;;;7.37;1.30;;;;;;;;;;5020279;28;20622;-44
2022/11/17 08:42:35;;;;;;;2.87;1.50;;;;;;;;;;5020388;28;20439;-45
2022/11/17 08:45:01;;;;;;;2.03;1.50;;;;;;;;;;5022711;28;20604;-44
2022/11/17 08:47:27;;;;;;;4.67;1.30;;;;;;;;;;5021747;28;20411;-44
2022/11/17 08:49:53;;;;;;;1.77;1.47;;;;;;;;;;5023787;28;20469;-43
2022/11/17 08:52:20;;;;;;;2.07;1.67;;;;;;;;;;5026522;28;20437;-44
2022/11/17 08:54:46;;;;;;;5.33;1.70;;;;;;;;;;5026587;28;20435;-44
2022/11/17 08:57:12;;;;;;;3.03;1.50;;;;;;;;;;5020823;28;20422;-44
2022/11/17 08:59:38;;;;;;;1.40;1.30;;;;;;;;;;5019400;28;20931;-44
2022/11/17 09:02:04;;;;;;;3.00;1.80;;;;;;;;;;5025129;28;20526;-43
2022/11/17 09:04:30;;;;;;;9.50;1.63;;;;;;;;;;5025141;28;20410;-44
2022/11/17 09:06:56;;;;;;;1.60;1.50;;;;;;;;;;5024637;28;20417;-43
2022/11/17 09:09:22;;;;;;;7.63;1.67;;;;;;;;;;5024419;28;20470;-43
2022/11/17 09:11:48;;;;;;;7.33;2.20;;;;;;;;;;5023670;28;20438;-44
2022/11/17 09:14:14;;;;;;;3.97;1.97;;;;;;;;;;5018073;28;20422;-43
2022/11/17 09:16:40;;;;;;;3.20;1.40;;;;;;;;;;5025128;28;20418;-43
2022/11/17 09:19:06;;;;;;;7.83;2.00;;;;;;;;;;5022734;28;20414;-43
2022/11/17 09:21:32;;;;;;;3.37;2.20;;;;;;;;;;5022426;28;20451;-43
2022/11/17 09:23:58;;;;;;;3.47;1.60;;;;;;;;;;5023975;28;20426;-43
2022/11/17 09:26:25;;;;;;;6.50;1.60;;;;;;;;;;5005667;28;20410;-43
2022/11/17 09:28:51;;;;;;;1.83;1.27;;;;;;;;;;5024310;28;20820;-43
2022/11/17 09:31:18;;;;;;;1.60;1.50;;;;;;;;;;5021438;28;20430;-44
2022/11/17 09:33:44;;;;;;;3.30;1.40;;;;;;;;;;5025792;28;20416;-45
2022/11/17 09:36:11;;;;;;;1.50;1.40;;;;;;;;;;5019433;28;20793;-44
2022/11/17 09:38:37;;;;;;;4.77;1.43;;;;;;;;;;5019403;28;20836;-44
2022/11/17 09:41:29;;;;;;;2.10;1.20;;;;;;;;;;5020672;28;20436;-45
2022/11/17 09:44:01;;;;;;;1.60;1.50;;;;;;;;;;5006677;28;20467;-44
2022/11/17 09:46:47;;;;;;;1.30;1.20;;;;;;;;;;5023236;28;20936;-44
2022/11/17 09:49:13;;;;;;;3.03;1.30;;;;;;;;;;4992299;28;20455;-44
2022/11/17 09:51:42;;;;;;;3.33;1.50;;;;;;;;;;5020253;28;20534;-43
2022/11/17 09:54:16;;;;;;;4.20;1.40;;;;;;;;;;5022669;28;20427;-44
2022/11/17 09:56:46;;;;;;;1.73;1.53;;;;;;;;;;5020423;28;20414;-44
2022/11/17 09:59:12;;;;;;;1.30;1.20;;;;;;;;;;5013294;28;20436;-44
2022/11/17 10:01:38;;;;;;;4.40;1.40;;;;;;;;;;5024266;28;20433;-44
2022/11/17 10:04:10;;;;;;;2.90;1.47;;;;;;;;;;5018978;28;20422;-44
2022/11/17 10:06:36;;;;;;;2.07;1.47;;;;;;;;;;5018741;28;20417;-44
2022/11/17 10:09:18;;;;;;;5.10;1.67;;;;;;;;;;5020349;28;20470;-44
2022/11/17 10:11:45;;;;;;;1.50;1.40;;;;;;;;;;5024724;28;20457;-44
2022/11/17 10:14:16;;;;;;;1.67;1.10;;;;;;;;;;5012183;28;20420;-44
2022/11/17 10:16:43;;;;;;;1.97;1.30;;;;;;;;;;5020037;28;20420;-44
2022/11/17 10:19:18;;;;;;;3.33;1.50;;;;;;;;;;5023654;28;20408;-44
2022/11/17 10:21:45;;;;;;;4.40;1.60;;;;;;;;;;5021323;28;20437;-44
2022/11/17 10:24:11;;;;;;;3.50;1.70;;;;;;;;;;5015623;28;20755;-44
2022/11/17 10:26:43;;;;;;;1.50;1.33;;;;;;;;;;5023700;28;21151;-44
2022/11/17 10:29:11;;;;;;;1.60;1.43;;;;;;;;;;5020401;28;20450;-44
2022/11/17 10:31:45;;;;;;;3.20;1.70;;;;;;;;;;5019572;28;20436;-44
2022/11/17 10:34:11;;;;;;;1.60;1.50;;;;;;;;;;5021843;28;20453;-45
2022/11/17 10:36:44;;;;;;;1.60;1.50;;;;;;;;;;5019791;28;20407;-44
2022/11/17 10:39:30;;;;;;;4.80;1.67;;;;;;;;;;5020162;28;20404;-44
2022/11/17 10:41:56;;;;;;;2.73;1.67;;;;;;;;;;5020943;28;20500;-44
2022/11/17 10:44:24;;;;;;;2.77;1.70;;;;;;;;;;5023662;28;20920;-44
2022/11/17 10:46:58;;;;;;;2.00;1.50;;;;;;;;;;5023123;28;20426;-44
2022/11/17 10:49:29;;;;;;;3.40;2.20;;;;;;;;;;5017753;28;20501;-44
2022/11/17 10:52:03;;;;;;;1.43;1.30;;;;;;;;;;5015100;28;20435;-44
2022/11/17 10:54:29;;;;;;;1.77;1.40;;;;;;;;;;5023183;28;20917;-44
2022/11/17 10:56:58;;;;;;;1.37;1.27;;;;;;;;;;5020390;28;20420;-44
2022/11/17 10:59:44;;;;;;;1.30;1.20;;;;;;;;;;5021506;28;20441;-44
2022/11/17 11:02:29;;;;;;;1.40;1.30;;;;;;;;;;5021659;28;20465;-43
2022/11/17 11:05:06;;;;;;;2.73;1.13;;;;;;;;;;5020162;28;20439;-44
2022/11/17 11:07:32;;;;;;;2.70;1.57;;;;;;;;;;5019556;28;20415;-44
2022/11/17 11:10:17;;;;;;;1.60;1.50;;;;;;;;;;5021037;28;20459;-43
2022/11/17 11:13:08;;;;;;;2.00;1.47;;;;;;;;;;5024375;28;20952;-44
2022/11/17 11:15:35;;;;;;;3.00;1.57;;;;;;;;;;5022846;28;20491;-44
2022/11/17 11:18:01;;;;;;;3.87;1.27;;;;;;;;;;5025428;28;20439;-44
2022/11/17 11:20:34;;;;;;;1.50;1.20;;;;;;;;;;5021163;28;20424;-44
2022/11/17 11:23:05;;;;;;;1.57;1.30;;;;;;;;;;5024711;28;20443;-44
2022/11/17 11:25:31;;;;;;;3.93;1.33;;;;;;;;;;5026935;28;20419;-44
2022/11/17 11:28:20;;;;;;;1.20;1.10;;;;;;;;;;5022242;28;20777;-44
2022/11/17 11:30:52;;;;;;;5.40;1.60;;;;;;;;;;5009779;28;21047;-44
2022/11/17 11:33:33;;;;;;;2.40;1.13;;;;;;;;;;5022493;28;20462;-44
2022/11/17 11:36:04;;;;;;;6.03;1.57;;;;;;;;;;5024716;28;20509;-44
2022/11/17 11:38:33;;;;;;;2.60;1.30;;;;;;;;;;5025731;28;20427;-44
2022/11/17 11:41:02;;;;;;;4.23;1.50;;;;;;;;;;5024379;28;20429;-44
2022/11/17 11:43:47;;;;;;;2.60;1.80;;;;;;;;;;5024400;28;20497;-44
2022/11/17 11:46:16;;;;;;;2.57;1.60;;;;;;;;;;5020936;28;20796;-44
2022/11/17 11:48:42;;;;;;;1.40;1.20;;;;;;;;;;5012726;28;20421;-44
2022/11/17 11:51:17;;;;;;;1.77;1.30;;;;;;;;;;5028059;28;20474;-44
2022/11/17 11:53:48;;;;;;;3.53;1.80;;;;;;;;;;5027850;28;20506;-44
2022/11/17 11:56:32;;;;;;;5.37;1.63;;;;;;;;;;5014718;28;20404;-44
2022/11/17 11:59:14;;;;;;;2.17;1.37;;;;;;;;;;5020441;28;20409;-44
2022/11/17 12:01:58;;;;;;;4.47;1.77;;;;;;;;;;5018926;28;20439;-45
2022/11/17 12:04:44;;;;;;;2.33;1.50;;;;;;;;;;5021465;28;20395;-44
2022/11/17 12:07:28;;;;;;;1.33;1.10;;;;;;;;;;5024009;28;20420;-44
2022/11/17 12:09:59;;;;;;;5.47;1.10;;;;;;;;;;5021359;28;20433;-45
2022/11/17 12:12:32;;;;;;;2.70;1.10;;;;;;;;;;5026317;28;21076;-44
2022/11/17 12:15:18;;;;;;;3.13;1.40;;;;;;;;;;5023266;28;20400;-44
2022/11/17 12:17:56;;;;;;;1.60;1.10;;;;;;;;;;5015188;28;20394;-44
2022/11/17 12:20:40;;;;;;;3.50;1.53;;;;;;;;;;5015516;28;20406;-44
2022/11/17 12:23:45;;;;;;;1.67;1.30;;;;;;;;;;5024138;28;20942;-44
2022/11/17 12:26:21;;;;;;;1.30;1.13;;;;;;;;;;4982904;28;20385;-44
2022/11/17 12:28:47;;;;;;;3.03;1.30;;;;;;;;;;4979591;28;20415;-44
2022/11/17 12:31:25;;;;;;;1.50;1.40;;;;;;;;;;5002806;28;20559;-44
2022/11/17 12:33:51;;;;;;;2.57;1.20;;;;;;;;;;5022782;28;20628;-44
2022/11/17 12:36:23;;;;;;;2.50;1.40;;;;;;;;;;5026859;28;20393;-44
2022/11/17 12:38:49;;;;;;;1.30;1.20;;;;;;;;;;5025765;28;20427;-44
2022/11/17 12:41:35;;;;;;;1.20;1.10;;;;;;;;;;5003744;28;20450;-44
2022/11/17 12:44:20;;;;;;;2.03;1.23;;;;;;;;;;5012427;28;20451;-45
2022/11/17 12:46:46;;;;;;;2.50;1.20;;;;;;;;;;5008526;28;20405;-44
2022/11/17 12:49:19;;;;;;;2.60;1.20;;;;;;;;;;5021718;28;20463;-44
2022/11/17 12:51:57;;;;;;;6.00;1.73;;;;;;;;;;5008228;28;20453;-44
2022/11/17 12:54:26;;;;;;;2.07;1.03;;;;;;;;;;5011929;28;20948;-44
2022/11/17 12:56:56;;;;;;;2.70;1.10;;;;;;;;;;5011765;28;20923;-44
2022/11/17 12:59:40;;;;;;;2.00;1.30;;;;;;;;;;5017975;28;20412;-44
2022/11/17 13:02:24;;;;;;;1.90;1.23;;;;;;;;;;5011052;28;20450;-44
2022/11/17 13:04:59;;;;;;;3.87;1.27;;;;;;;;;;5021487;28;20425;-44
2022/11/17 13:07:26;;;;;;;3.47;1.13;;;;;;;;;;5036729;28;20432;-44
2022/11/17 13:09:53;;;;;;;5.90;1.43;;;;;;;;;;5008331;28;20989;-44
2022/11/17 13:12:23;;;;;;;2.70;1.23;;;;;;;;;;5024297;28;20442;-44
2022/11/17 13:14:51;;;;;;;6.40;1.60;;;;;;;;;;5012218;28;20546;-44
2022/11/17 13:17:19;;;;;;;3.87;1.33;;;;;;;;;;5020061;28;20409;-44
2022/11/17 13:19:45;;;;;;;3.37;1.50;;;;;;;;;;5012408;28;20870;-44
2022/11/17 13:22:14;;;;;;;3.50;1.40;;;;;;;;;;5007681;28;20951;-43
2022/11/17 13:24:42;;;;;;;7.23;1.10;;;;;;;;;;5012947;28;20831;-44
2022/11/17 13:27:17;;;;;;;2.33;1.30;;;;;;;;;;5021885;28;20403;-44
2022/11/17 13:29:43;;;;;;;1.57;1.17;;;;;;;;;;5016804;28;20466;-44
2022/11/17 13:32:12;;;;;;;3.43;1.43;;;;;;;;;;5010130;28;20972;-44
2022/11/17 13:34:52;;;;;;;2.53;1.53;;;;;;;;;;5011928;28;20447;-44
2022/11/17 13:37:20;;;;;;;3.03;1.33;;;;;;;;;;5019747;28;20436;-44
2022/11/17 13:39:56;;;;;;;3.13;1.37;;;;;;;;;;5013884;28;20497;-44
2022/11/17 13:42:23;;;;;;;1.30;1.20;;;;;;;;;;5017449;28;20878;-44
2022/11/17 13:44:49;;;;;;;1.70;1.23;;;;;;;;;;5021857;28;20410;-44
2022/11/17 13:47:26;;;;;;;2.30;1.27;;;;;;;;;;5021157;28;20407;-43
2022/11/17 13:49:52;;;;;;;3.10;1.50;;;;;;;;;;5010582;28;20544;-44
2022/11/17 13:52:24;;;;;;;3.60;1.50;;;;;;;;;;5012173;28;20845;-44
2022/11/17 13:54:51;;;;;;;1.43;1.33;;;;;;;;;;5021643;28;20989;-44
2022/11/17 13:57:22;;;;;;;4.20;1.47;;;;;;;;;;5019679;28;20417;-44
2022/11/17 13:59:48;;;;;;;1.33;1.23;;;;;;;;;;5011649;28;20429;-44
2022/11/17 14:02:19;;;;;;;1.40;1.30;;;;;;;;;;5012017;28;20459;-44
2022/11/17 14:05:03;;;;;;;2.60;1.33;;;;;;;;;;5020342;28;20970;-44
2022/11/17 14:07:30;;;;;;;2.30;1.40;;;;;;;;;;5018952;28;20422;-44
2022/11/17 14:10:13;;;;;;;1.77;1.30;;;;;;;;;;5016490;28;20987;-44
2022/11/17 14:12:39;;;;;;;6.57;2.10;;;;;;;;;;5011759;28;20440;-44
2022/11/17 14:15:20;;;;;;;2.23;1.30;;;;;;;;;;5021803;28;20465;-44
2022/11/17 14:18:14;;;;;;;3.50;1.40;;;;;;;;;;5015190;28;20818;-44
2022/11/17 14:20:40;;;;;;;1.37;1.27;;;;;;;;;;5005313;28;21010;-44
2022/11/17 14:23:09;;;;;;;2.37;1.47;;;;;;;;;;5012657;28;20422;-44
2022/11/17 14:25:38;;;;;;;5.83;1.30;;;;;;;;;;5022908;28;20496;-43
2022/11/17 14:28:04;;;;;;;2.80;1.30;;;;;;;;;;5020779;28;20417;-44
2022/11/17 14:30:30;;;;;;;3.40;1.50;;;;;;;;;;5025717;28;20469;-44
2022/11/17 14:32:56;;;;;;;1.50;1.17;;;;;;;;;;5012477;28;20450;-45
2022/11/17 14:35:22;;;;;;;1.50;1.40;;;;;;;;;;5011650;28;20473;-44
2022/11/17 14:37:48;;;;;;;1.57;1.20;;;;;;;;;;5019090;28;20506;-44
2022/11/17 14:40:17;;;;;;;1.47;1.37;;;;;;;;;;5009742;28;20419;-44
2022/11/17 14:42:43;;;;;;;2.20;1.30;;;;;;;;;;5017892;28;20443;-44
2022/11/17 14:45:13;;;;;;;1.77;1.27;;;;;;;;;;5026068;28;20442;-44
2022/11/17 14:47:40;;;;;;;2.50;1.53;;;;;;;;;;5030884;28;20418;-44
2022/11/17 14:50:06;;;;;;;1.97;1.37;;;;;;;;;;5019499;28;20462;-44
2022/11/17 14:52:32;;;;;;;3.00;1.57;;;;;;;;;;5027065;28;20438;-44
2022/11/17 14:54:59;;;;;;;3.50;1.80;;;;;;;;;;5024010;28;20416;-44
2022/11/17 14:57:25;;;;;;;2.43;1.87;;;;;;;;;;5026190;28;20420;-44
2022/11/17 14:59:51;;;;;;;4.87;1.60;;;;;;;;;;5024290;28;20422;-43
2022/11/17 15:02:17;;;;;;;3.87;1.50;;;;;;;;;;5025567;28;20463;-43
2022/11/17 15:04:43;;;;;;;5.13;2.10;;;;;;;;;;5024642;28;20524;-44
2022/11/17 15:07:09;;;;;;;4.00;1.70;;;;;;;;;;5023573;28;20920;-43
2022/11/17 15:09:35;;;;;;;1.77;1.67;;;;;;;;;;5028152;28;21062;-44
2022/11/17 15:12:01;;;;;;;2.97;1.90;;;;;;;;;;5020795;28;21001;-44
2022/11/17 15:14:27;;;;;;;1.83;1.70;;;;;;;;;;5023303;28;20518;-44
2022/11/17 15:16:53;;;;;;;3.77;1.97;;;;;;;;;;5024384;28;20495;-44
2022/11/17 15:19:19;;;;;;;3.03;1.63;;;;;;;;;;5023603;28;20858;-44
2022/11/17 15:21:45;;;;;;;2.50;1.90;;;;;;;;;;5022908;28;20816;-44
2022/11/17 15:24:11;;;;;;;2.63;1.70;;;;;;;;;;5029304;28;20817;-44